createdAt,value
2019-02-20T00:02:06.830Z,7.6
2019-02-20T00:15:30.706Z,6.6
2019-02-20T00:26:17.405Z,7.9
2019-02-20T00:38:37.829Z,7.4
2019-02-20T00:49:25.642Z,7
2019-02-20T01:03:03.611Z,6.7
2019-02-20T01:13:50.527Z,8
2019-02-20T01:27:14.135Z,7.5
2019-02-20T01:38:01.135Z,7.1
2019-02-20T01:51:40.728Z,6.6
2019-02-20T02:02:28.835Z,7.4
2019-02-20T02:15:37.052Z,6.7
2019-02-20T02:26:24.322Z,8.5
2019-02-20T02:40:02.298Z,6.9
2019-02-20T02:50:50.068Z,7.8
2019-02-20T03:03:41.455Z,6.5
2019-02-20T03:14:29.174Z,6.5
2019-02-20T03:27:23.903Z,6.3
2019-02-20T03:38:10.697Z,6.6
2019-02-20T03:51:03.402Z,6.2
2019-02-20T04:01:50.756Z,5.2
2019-02-20T04:14:58.582Z,5.3
2019-02-20T04:25:45.935Z,5.6
2019-02-20T04:38:24.914Z,5.7
2019-02-20T04:49:12.384Z,4.7
2019-02-20T05:01:49.934Z,5.8
2019-02-20T05:12:37.334Z,6.7
2019-02-20T05:25:28.021Z,6.4
2019-02-20T05:36:14.795Z,6.9
2019-02-20T05:48:51.581Z,6.8
2019-02-20T05:59:38.915Z,7
2019-02-20T06:12:18.214Z,7.2
2019-02-20T06:23:05.307Z,6.8
2019-02-20T06:35:57.045Z,6.2
2019-02-20T06:46:43.992Z,7.1
2019-02-20T06:59:20.873Z,9.2
2019-02-20T07:10:07.621Z,10.6
2019-02-20T07:23:15.745Z,8.8
2019-02-20T07:34:02.516Z,9.5
2019-02-20T07:46:39.407Z,10.3
2019-02-20T07:57:27.054Z,11.1
2019-02-20T08:10:04.440Z,9
2019-02-20T08:20:53.088Z,8.2
2019-02-20T08:33:31.485Z,8.2
2019-02-20T08:44:18.159Z,8.3
2019-02-20T08:57:10.747Z,6.3
2019-02-20T09:07:57.651Z,4.8
2019-02-20T09:19:31.279Z,5.1
2019-02-20T09:30:28.259Z,7.1
2019-02-20T09:42:33.706Z,5.7
2019-02-20T09:53:20.653Z,7
2019-02-20T10:04:08.210Z,6.4
2019-02-20T10:14:55.516Z,6.1
2019-02-20T10:26:30.069Z,7
2019-02-20T10:37:17.376Z,6.6
2019-02-20T10:48:04.894Z,6
2019-02-20T10:58:51.723Z,6.1
2019-02-20T11:09:39.422Z,6.3
2019-02-20T11:20:26.276Z,5.8
2019-02-20T11:31:44.128Z,5.9
2019-02-20T11:42:31.638Z,5.9
2019-02-20T11:55:45.749Z,6.9
2019-02-20T12:06:32.730Z,6.6
2019-02-20T12:20:27.018Z,5.9
2019-02-20T12:32:30.889Z,6.8
2019-02-20T12:40:40.967Z,7
2019-02-20T13:07:25.985Z,6.3
2019-02-20T13:15:07.569Z,6.1
2019-02-20T13:21:17.619Z,5.9
2019-02-20T13:32:06.065Z,5.7
2019-02-20T13:42:53.922Z,6
2019-02-20T13:49:25.485Z,6.3
2019-02-20T13:56:41.126Z,5.6
2019-02-20T14:07:28.349Z,6
2019-02-20T14:18:15.709Z,4.4
2019-02-20T14:29:02.476Z,4.5
2019-02-20T14:39:50.386Z,3.9
2019-02-20T14:50:38.152Z,3.8
2019-02-20T15:01:25.210Z,3.7
2019-02-20T15:12:12.778Z,2.5
2019-02-20T15:23:00.440Z,2.8
2019-02-20T15:33:47.303Z,2.5
2019-02-20T15:44:33.947Z,3.3
2019-02-20T15:55:20.874Z,3.9
2019-02-20T16:06:07.783Z,3.7
2019-02-20T16:16:55.132Z,5.3
2019-02-20T16:28:14.336Z,7.3
2019-02-20T16:39:01.636Z,8.7
2019-02-20T16:49:48.642Z,7.9
2019-02-20T17:00:36.756Z,8.5
2019-02-20T17:11:24.111Z,11.3
2019-02-20T17:23:59.745Z,12.4
2019-02-20T17:34:47.279Z,10.6
2019-02-20T17:45:33.991Z,13.8
2019-02-20T17:56:21.099Z,17.3
2019-02-20T18:10:26.157Z,30.6
2019-02-20T18:21:15.218Z,15
2019-02-20T18:32:02.138Z,12.5
2019-02-20T18:42:49.151Z,13.4
2019-02-20T18:56:42.790Z,12.9
2019-02-20T19:07:35.368Z,14.5
2019-02-20T19:18:22.169Z,10.1
2019-02-20T19:29:10.501Z,12.7
2019-02-20T19:39:57.730Z,10.4
2019-02-20T19:50:44.697Z,12.2
2019-02-20T20:01:31.782Z,11.5
2019-02-20T20:14:40.248Z,12.2
2019-02-20T20:25:27.829Z,12.7
2019-02-20T20:36:15.604Z,14.3
2019-02-20T20:49:13.917Z,14.8
2019-02-20T21:00:01.803Z,12.7
2019-02-20T21:10:53.953Z,12.7
2019-02-20T21:25:42.037Z,12.4
2019-02-20T21:36:29.146Z,12.3
2019-02-20T21:47:16.500Z,14
2019-02-20T22:00:45.515Z,12.6
2019-02-20T22:11:32.712Z,12.9
2019-02-20T22:22:19.842Z,15.6
2019-02-20T22:35:42.528Z,13.5
2019-02-20T22:46:29.358Z,15.5
2019-02-20T22:57:17.147Z,14.8
2019-02-20T23:10:25.359Z,13
2019-02-20T23:21:12.768Z,14.2
2019-02-20T23:31:59.585Z,13
2019-02-20T23:44:38.563Z,13.2
2019-02-20T23:55:25.459Z,13.6
